Time;durP1;ratioP1;P1;durP2;ratioP2;P2;SDS_P1;SDS_P2;PMS_P1;PMS_P2;Temp;Humidity;BMP_temperature;BMP_pressure;BME280_temperature;BME280_humidity;BME280_pressure;Samples;Min_cycle;Max_cycle;Signal;HPM_P1;HPM_P2
2023/11/14 00:01:54;;;;;;;13.53;2.90;;;13.60;99.90;;;;;;5065327;28;20200;-77
2023/11/14 00:04:19;;;;;;;13.60;2.40;;;13.60;99.90;;;;;;5073218;28;20234;-78
2023/11/14 00:06:45;;;;;;;21.87;4.20;;;13.60;99.90;;;;;;5037524;28;20619;-77
2023/11/14 00:09:11;;;;;;;13.77;3.20;;;13.60;99.90;;;;;;5073824;28;20234;-78
2023/11/14 00:11:37;;;;;;;15.53;2.53;;;13.60;99.90;;;;;;5076606;28;20212;-79
2023/11/14 00:14:03;;;;;;;14.03;2.97;;;13.60;99.90;;;;;;5076621;28;20279;-78
2023/11/14 00:16:29;;;;;;;18.57;5.10;;;13.60;99.90;;;;;;5075974;28;20629;-78
2023/11/14 00:18:55;;;;;;;11.73;2.47;;;13.60;99.90;;;;;;5058797;28;20578;-79
2023/11/14 00:21:21;;;;;;;14.13;2.87;;;13.60;99.90;;;;;;5077326;28;20618;-78
2023/11/14 00:23:47;;;;;;;10.83;2.70;;;13.60;99.90;;;;;;5058175;28;20605;-79
2023/11/14 00:26:12;;;;;;;13.97;2.37;;;13.60;99.90;;;;;;5056666;28;20279;-78
2023/11/14 00:28:43;;;;;;;14.23;2.80;;;13.60;99.90;;;;;;5063399;28;20202;-79
2023/11/14 00:31:08;;;;;;;10.73;1.93;;;13.60;99.90;;;;;;5046058;28;20678;-79
2023/11/14 00:33:34;;;;;;;11.80;3.23;;;13.60;99.90;;;;;;5080513;28;20180;-79
2023/11/14 00:36:00;;;;;;;12.47;3.27;;;13.60;99.90;;;;;;5062783;28;20200;-79
2023/11/14 00:38:26;;;;;;;16.77;2.80;;;13.60;99.90;;;;;;5061840;28;20618;-79
2023/11/14 00:40:53;;;;;;;8.70;2.00;;;13.60;99.90;;;;;;5079577;28;20634;-79
2023/11/14 00:43:18;;;;;;;20.43;3.20;;;13.60;99.90;;;;;;5073991;28;20618;-79
2023/11/14 00:45:45;;;;;;;9.47;2.13;;;13.60;99.90;;;;;;5060429;28;20621;-79
2023/11/14 00:48:11;;;;;;;15.63;3.53;;;13.60;99.90;;;;;;5077125;28;20601;-79
2023/11/14 00:50:36;;;;;;;11.60;2.80;;;13.60;99.90;;;;;;5078322;28;21141;-79
2023/11/14 00:53:02;;;;;;;16.67;3.30;;;13.60;99.90;;;;;;5061363;28;20183;-79
2023/11/14 00:55:28;;;;;;;10.37;2.50;;;13.60;99.90;;;;;;5040639;28;20228;-79
2023/11/14 00:57:53;;;;;;;9.63;2.50;;;13.60;99.90;;;;;;5073962;28;20261;-78
2023/11/14 01:00:20;;;;;;;13.47;2.93;;;13.60;99.90;;;;;;5056251;28;20208;-78
2023/11/14 01:02:46;;;;;;;13.67;3.40;;;13.60;99.90;;;;;;5056383;28;20182;-78
2023/11/14 01:05:12;;;;;;;16.63;3.33;;;13.60;99.90;;;;;;5067297;28;20606;-78
2023/11/14 01:07:39;;;;;;;13.70;2.30;;;13.60;99.90;;;;;;5074982;28;20578;-78
2023/11/14 01:10:06;;;;;;;14.83;2.67;;;13.60;99.90;;;;;;5073426;28;20619;-78
2023/11/14 01:12:32;;;;;;;12.53;3.30;;;13.70;99.90;;;;;;5042102;28;20586;-78
2023/11/14 01:14:58;;;;;;;17.10;3.63;;;13.60;99.90;;;;;;5064935;28;20645;-78
2023/11/14 01:17:24;;;;;;;10.83;3.23;;;13.60;99.90;;;;;;5056934;28;20184;-78
2023/11/14 01:19:50;;;;;;;11.07;3.20;;;13.60;99.90;;;;;;5072787;28;20656;-78
2023/11/14 01:22:17;;;;;;;14.27;2.90;;;13.60;99.90;;;;;;5037992;28;20626;-78
2023/11/14 01:24:43;;;;;;;9.00;2.47;;;13.60;99.90;;;;;;5073170;28;20701;-78
2023/11/14 01:27:09;;;;;;;13.23;2.90;;;13.60;99.90;;;;;;5075257;28;20666;-79
2023/11/14 01:29:34;;;;;;;17.40;3.20;;;13.60;99.90;;;;;;5057197;28;20606;-78
2023/11/14 01:32:00;;;;;;;15.77;2.53;;;13.60;99.90;;;;;;5055904;28;20181;-78
2023/11/14 01:34:26;;;;;;;13.47;3.00;;;13.60;99.90;;;;;;5056341;28;20329;-78
2023/11/14 01:36:58;;;;;;;14.17;2.97;;;13.60;99.90;;;;;;5074453;28;20590;-78
2023/11/14 01:39:25;;;;;;;19.00;3.90;;;13.60;99.90;;;;;;5074924;28;20595;-78
2023/11/14 01:41:51;;;;;;;15.75;3.17;;;13.60;99.90;;;;;;5038807;28;20698;-78
2023/11/14 01:44:17;;;;;;;17.10;2.73;;;13.60;99.90;;;;;;5038550;28;20218;-78
2023/11/14 01:46:43;;;;;;;18.60;4.97;;;13.60;99.90;;;;;;5054717;28;20606;-78
2023/11/14 01:49:10;;;;;;;10.43;3.17;;;13.60;99.90;;;;;;5071883;28;20251;-78
2023/11/14 01:51:36;;;;;;;17.37;2.73;;;13.60;99.90;;;;;;5035107;28;20599;-78
2023/11/14 01:54:03;;;;;;;18.23;4.10;;;13.60;99.90;;;;;;5054624;28;21175;-78
2023/11/14 01:56:29;;;;;;;6.87;1.50;;;13.60;99.90;;;;;;5072187;28;20954;-78
2023/11/14 01:58:56;;;;;;;11.47;3.17;;;13.60;99.90;;;;;;5037699;28;20629;-78
2023/11/14 02:01:24;;;;;;;11.67;3.30;;;13.60;99.90;;;;;;5037279;28;20202;-78
2023/11/14 02:03:51;;;;;;;9.67;2.33;;;13.60;99.90;;;;;;5054236;28;20674;-78
2023/11/14 02:06:17;;;;;;;20.27;3.60;;;13.60;99.90;;;;;;5058851;28;20622;-78
2023/11/14 02:08:43;;;;;;;11.00;2.33;;;13.60;99.90;;;;;;5021084;28;21228;-78
2023/11/14 02:11:14;;;;;;;12.13;2.30;;;13.60;99.90;;;;;;5072712;28;20601;-78
2023/11/14 02:13:44;;;;;;;7.80;2.10;;;13.60;99.90;;;;;;5071026;28;20685;-78
2023/11/14 02:16:09;;;;;;;14.13;2.87;;;13.60;99.90;;;;;;5036935;28;20216;-78
2023/11/14 02:18:36;;;;;;;17.20;3.33;;;13.60;99.90;;;;;;5054349;28;20582;-78
2023/11/14 02:21:02;;;;;;;11.47;2.27;;;13.60;99.90;;;;;;5045711;28;20199;-78
2023/11/14 02:23:33;;;;;;;10.87;2.40;;;13.60;99.90;;;;;;5037293;28;20635;-78
2023/11/14 02:25:59;;;;;;;14.55;3.08;;;13.60;99.90;;;;;;5053989;28;20697;-78
2023/11/14 02:28:25;;;;;;;18.33;3.00;;;13.60;99.90;;;;;;5020847;28;20176;-78
2023/11/14 02:30:51;;;;;;;11.20;2.33;;;13.60;99.90;;;;;;5036588;28;21235;-79
2023/11/14 02:33:17;;;;;;;13.30;2.37;;;13.60;99.90;;;;;;5043120;28;20178;-79
2023/11/14 02:35:42;;;;;;;17.60;3.33;;;13.60;99.90;;;;;;5036582;28;20207;-76
2023/11/14 02:38:09;;;;;;;18.10;3.70;;;13.60;99.90;;;;;;5071566;28;20237;-77
2023/11/14 02:40:35;;;;;;;10.23;2.47;;;13.60;99.90;;;;;;5037030;28;20638;-78
2023/11/14 02:43:00;;;;;;;12.27;3.93;;;13.60;99.90;;;;;;5058041;28;20529;-77
2023/11/14 02:45:26;;;;;;;14.67;3.13;;;13.60;99.90;;;;;;5037619;28;20298;-78
2023/11/14 02:47:53;;;;;;;17.17;4.17;;;13.60;99.90;;;;;;5054663;28;20585;-78
2023/11/14 02:50:50;;;;;;;15.33;2.73;;;13.60;99.90;;;;;;5053052;28;20622;-78
2023/11/14 02:53:16;;;;;;;9.70;3.13;;;13.60;99.90;;;;;;5071089;28;20579;-78
2023/11/14 02:55:43;;;;;;;12.53;2.80;;;13.60;99.90;;;;;;5073072;28;20613;-78
2023/11/14 02:58:13;;;;;;;19.13;3.10;;;13.60;99.90;;;;;;5046852;28;20578;-78
2023/11/14 03:00:42;;;;;;;13.93;2.70;;;13.60;99.90;;;;;;5038011;28;20630;-78
2023/11/14 03:03:12;;;;;;;14.03;3.37;;;13.60;99.90;;;;;;5044975;28;20956;-78
2023/11/14 03:05:38;;;;;;;12.30;2.43;;;13.60;99.90;;;;;;5037135;28;20697;-78
2023/11/14 03:08:05;;;;;;;13.30;2.13;;;13.60;99.90;;;;;;5037649;28;20610;-77
2023/11/14 03:10:31;;;;;;;6.10;2.20;;;13.60;99.90;;;;;;5071217;28;20582;-78
2023/11/14 03:12:58;;;;;;;11.73;2.40;;;13.60;99.90;;;;;;5053498;28;20180;-78
2023/11/14 03:15:24;;;;;;;11.87;3.10;;;13.60;99.90;;;;;;5036553;28;20618;-78
2023/11/14 03:17:55;;;;;;;16.40;3.00;;;13.60;99.90;;;;;;5053749;28;20644;-78
2023/11/14 03:20:20;;;;;;;15.60;2.90;;;13.60;99.90;;;;;;5075101;28;21037;-78
2023/11/14 03:22:46;;;;;;;11.27;2.37;;;13.60;99.90;;;;;;5036575;28;20670;-78
2023/11/14 03:25:13;;;;;;;17.10;5.03;;;13.60;99.90;;;;;;5055244;28;20649;-78
2023/11/14 03:27:39;;;;;;;12.73;2.57;;;13.50;99.90;;;;;;5055228;28;20578;-78
2023/11/14 03:30:07;;;;;;;12.47;2.70;;;13.50;99.90;;;;;;5055522;28;21164;-78
2023/11/14 03:32:34;;;;;;;14.50;2.73;;;13.50;99.90;;;;;;5074013;28;20567;-78
2023/11/14 03:35:01;;;;;;;12.67;3.30;;;13.50;99.90;;;;;;5054207;28;20621;-78
2023/11/14 03:37:26;;;;;;;13.37;2.83;;;13.50;99.90;;;;;;5068958;28;21163;-78
2023/11/14 03:39:52;;;;;;;13.50;3.77;;;13.50;99.90;;;;;;5055512;28;20586;-78
2023/11/14 03:42:18;;;;;;;12.67;3.43;;;13.50;99.90;;;;;;5073144;28;20183;-78
2023/11/14 03:44:44;;;;;;;12.00;2.87;;;13.50;99.90;;;;;;5057840;28;20542;-78
2023/11/14 03:47:10;;;;;;;11.30;3.10;;;13.50;99.90;;;;;;5042324;28;20673;-78
2023/11/14 03:49:36;;;;;;;9.53;2.70;;;13.50;99.90;;;;;;5077357;28;21007;-78
2023/11/14 03:52:02;;;;;;;10.73;3.10;;;13.50;99.90;;;;;;5041685;28;20184;-78
2023/11/14 03:54:28;;;;;;;16.70;3.30;;;13.50;99.90;;;;;;5075701;28;21175;-78
2023/11/14 03:56:54;;;;;;;10.63;2.37;;;13.50;99.90;;;;;;5061696;28;20590;-78
2023/11/14 03:59:21;;;;;;;10.13;2.30;;;13.50;99.90;;;;;;5058559;28;20595;-78
2023/11/14 04:01:47;;;;;;;13.53;1.93;;;13.50;99.90;;;;;;5040173;28;20691;-78
2023/11/14 04:04:13;;;;;;;9.23;2.20;;;13.50;99.90;;;;;;5075501;28;20659;-78
2023/11/14 04:06:39;;;;;;;14.30;2.60;;;13.50;99.90;;;;;;5040505;28;20676;-79
2023/11/14 04:09:05;;;;;;;9.63;2.67;;;13.60;99.90;;;;;;5039965;28;20709;-79
2023/11/14 04:11:31;;;;;;;14.13;3.77;;;13.60;99.90;;;;;;5040275;28;20180;-78
2023/11/14 04:13:57;;;;;;;12.90;3.60;;;13.60;99.90;;;;;;5057017;28;20184;-78
2023/11/14 04:16:23;;;;;;;15.30;3.53;;;13.70;99.90;;;;;;5075089;28;20668;-78
2023/11/14 04:18:49;;;;;;;14.17;3.30;;;13.70;99.90;;;;;;5065049;28;20216;-78
2023/11/14 04:21:19;;;;;;;9.30;2.73;;;13.70;99.90;;;;;;5056881;28;20668;-78
2023/11/14 04:23:46;;;;;;;6.27;1.83;;;13.80;99.90;;;;;;5040607;28;20583;-78
2023/11/14 04:26:14;;;;;;;8.57;2.10;;;13.80;99.90;;;;;;5040366;28;20636;-77
2023/11/14 04:28:42;;;;;;;12.47;2.87;;;13.80;99.90;;;;;;5056017;28;20578;-76
2023/11/14 04:31:08;;;;;;;11.10;3.20;;;13.90;99.90;;;;;;5056025;28;20605;-76
2023/11/14 04:33:34;;;;;;;11.37;2.10;;;13.90;99.90;;;;;;5061446;28;20589;-76
2023/11/14 04:36:00;;;;;;;13.67;4.00;;;14.00;99.90;;;;;;5056572;28;20629;-76
2023/11/14 04:38:27;;;;;;;16.57;2.53;;;14.00;99.90;;;;;;5055909;28;20589;-76
2023/11/14 04:40:54;;;;;;;7.13;2.03;;;14.10;99.90;;;;;;5073381;28;20664;-77
2023/11/14 04:43:20;;;;;;;13.37;3.07;;;14.10;99.90;;;;;;5055421;28;20997;-77
2023/11/14 04:45:45;;;;;;;15.00;3.23;;;14.10;99.90;;;;;;5073293;28;20195;-77
2023/11/14 04:48:12;;;;;;;10.63;2.53;;;14.20;99.90;;;;;;5073432;28;20618;-77
2023/11/14 04:50:38;;;;;;;14.93;2.87;;;14.30;99.90;;;;;;5053575;28;20990;-76
2023/11/14 04:53:04;;;;;;;8.07;2.37;;;14.30;99.90;;;;;;5072392;28;20594;-76
2023/11/14 04:55:30;;;;;;;13.13;3.10;;;14.30;99.90;;;;;;5054059;28;20678;-76
2023/11/14 04:57:56;;;;;;;11.33;2.90;;;14.40;99.90;;;;;;5073861;28;20225;-80
2023/11/14 05:00:21;;;;;;;11.77;2.70;;;14.40;99.90;;;;;;5062770;28;20742;-80
2023/11/14 05:02:47;;;;;;;8.30;2.10;;;14.40;99.90;;;;;;5078226;28;20582;-80
2023/11/14 05:05:14;;;;;;;15.63;2.53;;;14.40;99.90;;;;;;5038443;28;20290;-81
2023/11/14 05:07:40;;;;;;;15.27;2.80;;;14.40;99.90;;;;;;5038621;28;20267;-80
2023/11/14 05:10:07;;;;;;;12.17;2.23;;;14.40;99.90;;;;;;5075888;28;20646;-80
2023/11/14 05:12:33;;;;;;;17.73;3.20;;;14.50;99.90;;;;;;5055360;28;20706;-80
2023/11/14 05:14:58;;;;;;;9.30;2.77;;;14.50;99.90;;;;;;5054836;28;20724;-80
2023/11/14 05:17:24;;;;;;;14.10;2.60;;;14.50;99.90;;;;;;5054820;28;20183;-79
2023/11/14 05:19:50;;;;;;;13.33;2.20;;;14.50;99.90;;;;;;5058160;28;20172;-81
2023/11/14 05:22:17;;;;;;;9.43;2.77;;;14.50;99.90;;;;;;5055480;28;20263;-80
2023/11/14 05:24:43;;;;;;;15.30;2.87;;;14.50;99.90;;;;;;5072742;28;20938;-80
2023/11/14 05:27:09;;;;;;;13.00;2.27;;;14.50;99.90;;;;;;5072622;28;21155;-80
2023/11/14 05:29:35;;;;;;;14.20;2.37;;;14.50;99.90;;;;;;5054935;28;20641;-80
2023/11/14 05:32:01;;;;;;;12.50;3.10;;;14.50;99.90;;;;;;5072371;28;20208;-80
2023/11/14 05:34:26;;;;;;;13.80;2.70;;;14.50;99.90;;;;;;5054875;28;20999;-80
2023/11/14 05:36:52;;;;;;;6.30;2.20;;;14.50;99.90;;;;;;5054706;28;20215;-80
2023/11/14 05:39:19;;;;;;;11.90;2.70;;;14.50;99.90;;;;;;5072848;28;20634;-80
2023/11/14 05:41:45;;;;;;;8.00;2.70;;;14.50;99.90;;;;;;5029707;28;20203;-80
2023/11/14 05:44:10;;;;;;;8.87;2.37;;;14.50;99.90;;;;;;5054373;28;20927;-80
2023/11/14 05:46:36;;;;;;;17.60;2.70;;;14.50;99.90;;;;;;5037690;28;20231;-80
2023/11/14 05:49:02;;;;;;;10.53;2.20;;;14.50;99.90;;;;;;5076367;28;20810;-80
2023/11/14 05:51:28;;;;;;;11.63;2.97;;;14.50;99.90;;;;;;5054413;28;20184;-80
2023/11/14 05:53:54;;;;;;;12.17;3.00;;;14.40;99.90;;;;;;5054256;28;20673;-80
2023/11/14 05:56:20;;;;;;;11.10;2.43;;;14.40;99.90;;;;;;5046012;28;20613;-80
2023/11/14 05:58:46;;;;;;;15.20;3.20;;;14.40;99.90;;;;;;5041487;28;20583;-80
2023/11/14 06:01:12;;;;;;;16.07;3.50;;;14.30;99.90;;;;;;5054189;28;21171;-81
2023/11/14 06:03:37;;;;;;;18.40;4.40;;;14.30;99.90;;;;;;5062718;28;20579;-80
2023/11/14 06:06:04;;;;;;;11.60;2.30;;;14.20;99.90;;;;;;5052137;28;20693;-80
2023/11/14 06:08:30;;;;;;;8.50;2.10;;;14.20;99.90;;;;;;5054094;28;20176;-80
2023/11/14 06:10:56;;;;;;;12.23;2.33;;;14.20;99.90;;;;;;5071583;28;20628;-80
2023/11/14 06:13:22;;;;;;;17.03;3.07;;;14.10;99.90;;;;;;5055500;28;20587;-80
2023/11/14 06:15:48;;;;;;;11.30;2.10;;;14.10;99.90;;;;;;5054943;28;20980;-81
2023/11/14 06:18:13;;;;;;;13.27;3.23;;;14.10;99.90;;;;;;5057434;28;20235;-80
2023/11/14 06:20:40;;;;;;;10.70;3.63;;;14.10;99.90;;;;;;5056543;28;20212;-79
2023/11/14 06:23:05;;;;;;;11.87;2.40;;;14.10;99.90;;;;;;5054595;28;20259;-80
2023/11/14 06:25:31;;;;;;;10.17;2.47;;;14.10;99.90;;;;;;5059464;28;21230;-80
2023/11/14 06:27:58;;;;;;;11.97;2.10;;;14.00;99.90;;;;;;5066218;28;20579;-79
2023/11/14 06:30:23;;;;;;;15.03;2.70;;;14.00;99.90;;;;;;5076829;28;20587;-79
2023/11/14 06:32:49;;;;;;;13.50;2.23;;;14.00;99.90;;;;;;5055284;28;20594;-79
2023/11/14 06:35:15;;;;;;;9.37;2.60;;;14.00;99.90;;;;;;5086820;28;20203;-79
2023/11/14 06:37:44;;;;;;;7.67;1.93;;;14.00;99.90;;;;;;5068692;28;20255;-79
2023/11/14 06:40:11;;;;;;;10.63;2.73;;;13.90;99.90;;;;;;5077691;28;20172;-76
2023/11/14 06:42:38;;;;;;;11.07;2.30;;;13.90;99.90;;;;;;5053636;28;20583;-76
2023/11/14 06:45:07;;;;;;;13.80;3.27;;;13.90;99.90;;;;;;5070187;28;20606;-76
2023/11/14 06:47:33;;;;;;;13.53;2.73;;;13.90;99.90;;;;;;5060222;28;20575;-76
2023/11/14 06:49:58;;;;;;;12.43;3.07;;;13.90;99.90;;;;;;5072518;28;21084;-76
2023/11/14 06:52:24;;;;;;;9.43;2.93;;;13.90;99.90;;;;;;5054709;28;20249;-76
2023/11/14 06:54:50;;;;;;;14.77;2.40;;;13.90;99.90;;;;;;5036798;28;20196;-76
2023/11/14 06:57:15;;;;;;;9.27;2.40;;;13.90;99.90;;;;;;5071949;28;20171;-76
2023/11/14 06:59:41;;;;;;;13.43;2.50;;;14.00;99.90;;;;;;5036434;28;20172;-75
2023/11/14 07:02:08;;;;;;;8.13;2.03;;;14.00;99.90;;;;;;5058928;28;20200;-76
2023/11/14 07:04:37;;;;;;;7.13;2.10;;;14.00;99.90;;;;;;5073025;28;20164;-76
2023/11/14 07:07:04;;;;;;;14.63;3.07;;;14.00;99.90;;;;;;5055661;28;20597;-76
2023/11/14 07:09:30;;;;;;;11.60;2.80;;;14.00;99.90;;;;;;5075572;28;20621;-77
2023/11/14 07:11:56;;;;;;;10.53;2.67;;;14.00;99.90;;;;;;5059347;28;20609;-76
2023/11/14 07:14:24;;;;;;;10.10;2.57;;;14.10;99.90;;;;;;5054777;28;20609;-77
2023/11/14 07:16:51;;;;;;;8.53;2.27;;;14.00;99.90;;;;;;5074697;28;20594;-76
2023/11/14 07:19:17;;;;;;;8.63;2.10;;;14.00;99.90;;;;;;5056438;28;20586;-77
2023/11/14 07:21:45;;;;;;;16.50;2.90;;;14.10;99.90;;;;;;5053058;28;20618;-76
2023/11/14 07:24:11;;;;;;;9.13;2.40;;;14.10;99.90;;;;;;5070882;28;20628;-76
2023/11/14 07:26:37;;;;;;;12.60;2.93;;;14.10;99.90;;;;;;5070789;28;20680;-76
2023/11/14 07:29:04;;;;;;;10.07;2.67;;;14.10;99.90;;;;;;5070761;28;20593;-76
2023/11/14 07:31:33;;;;;;;11.80;1.97;;;14.20;99.90;;;;;;5052718;28;21018;-76
2023/11/14 07:33:58;;;;;;;14.30;2.80;;;14.20;99.90;;;;;;5051264;28;20655;-75
2023/11/14 07:36:32;;;;;;;14.13;2.50;;;14.30;99.90;;;;;;5070976;28;20622;-76
2023/11/14 07:39:01;;;;;;;13.10;2.00;;;14.30;99.90;;;;;;5074606;28;20180;-76
2023/11/14 07:41:26;;;;;;;14.83;2.53;;;14.40;99.90;;;;;;5070840;28;20618;-76
2023/11/14 07:43:52;;;;;;;14.93;3.80;;;14.40;99.90;;;;;;5070480;28;20660;-76
2023/11/14 07:46:17;;;;;;;15.43;2.80;;;14.40;99.90;;;;;;5052552;28;20196;-77
2023/11/14 07:48:43;;;;;;;9.50;2.53;;;14.50;99.90;;;;;;5070469;28;20176;-75
2023/11/14 07:51:09;;;;;;;11.70;2.47;;;14.50;99.90;;;;;;5070315;28;20222;-75
2023/11/14 07:53:35;;;;;;;25.00;4.80;;;14.50;99.90;;;;;;5051974;28;21059;-77
2023/11/14 07:56:01;;;;;;;8.13;2.37;;;14.50;99.90;;;;;;5035838;28;21012;-76
2023/11/14 07:58:29;;;;;;;9.47;2.30;;;14.60;99.90;;;;;;5035806;28;20176;-76
2023/11/14 08:00:58;;;;;;;12.50;2.10;;;14.60;99.90;;;;;;5055780;28;20628;-75
2023/11/14 08:03:23;;;;;;;9.47;2.67;;;14.60;99.90;;;;;;5062511;28;20994;-75
2023/11/14 08:05:49;;;;;;;16.57;3.17;;;14.70;99.90;;;;;;5052207;28;20618;-76
2023/11/14 08:08:15;;;;;;;11.40;2.40;;;14.70;99.90;;;;;;5070168;28;20187;-75
2023/11/14 08:10:41;;;;;;;8.50;1.83;;;14.80;99.90;;;;;;5070148;28;20863;-76
2023/11/14 08:13:07;;;;;;;10.67;1.77;;;14.80;99.90;;;;;;5070037;28;20582;-75
2023/11/14 08:15:33;;;;;;;8.60;2.03;;;14.90;99.90;;;;;;5070019;28;20966;-76
2023/11/14 08:17:59;;;;;;;9.07;2.67;;;15.00;99.90;;;;;;5052395;28;20579;-75
2023/11/14 08:20:28;;;;;;;11.33;2.37;;;15.10;99.90;;;;;;5070105;28;20619;-75
2023/11/14 08:22:54;;;;;;;14.63;2.40;;;15.20;99.90;;;;;;5051875;28;20601;-76
2023/11/14 08:25:20;;;;;;;15.47;2.70;;;15.20;99.90;;;;;;5069413;28;20598;-75
2023/11/14 08:27:47;;;;;;;12.70;1.70;;;15.30;99.90;;;;;;5069732;28;21163;-75
2023/11/14 08:30:13;;;;;;;8.00;2.27;;;15.40;99.90;;;;;;5068898;28;20614;-75
2023/11/14 08:32:47;;;;;;;11.37;2.20;;;15.50;99.90;;;;;;5054151;28;20610;-75
2023/11/14 08:35:13;;;;;;;9.50;1.60;;;15.50;99.90;;;;;;5073003;28;20641;-75
2023/11/14 08:37:39;;;;;;;8.87;3.53;;;15.60;99.90;;;;;;5033679;28;20587;-75
2023/11/14 08:40:09;;;;;;;9.20;2.40;;;15.60;99.90;;;;;;5054730;28;21159;-76
2023/11/14 08:42:36;;;;;;;8.00;1.40;;;15.60;99.90;;;;;;5054828;28;21155;-75
2023/11/14 08:45:02;;;;;;;10.17;2.10;;;15.70;99.90;;;;;;5054431;28;20610;-75
2023/11/14 08:47:28;;;;;;;8.07;2.43;;;15.70;99.90;;;;;;5072919;28;20590;-75
2023/11/14 08:49:54;;;;;;;7.73;1.90;;;15.70;99.90;;;;;;5054025;28;20590;-76
2023/11/14 08:52:19;;;;;;;13.70;2.20;;;15.80;99.90;;;;;;5054960;28;20246;-75
2023/11/14 08:54:46;;;;;;;7.53;2.27;;;15.80;99.90;;;;;;5057617;28;20172;-75
2023/11/14 08:57:12;;;;;;;9.87;2.70;;;15.80;99.90;;;;;;5054683;28;20207;-76
2023/11/14 08:59:38;;;;;;;10.40;2.70;;;15.90;99.90;;;;;;5072617;28;20578;-76
2023/11/14 09:02:04;;;;;;;7.53;1.47;;;15.90;99.90;;;;;;5072220;28;20722;-75
2023/11/14 09:04:30;;;;;;;5.90;1.80;;;15.90;99.90;;;;;;5052836;28;20192;-75
2023/11/14 09:07:04;;;;;;;10.37;2.67;;;15.90;99.90;;;;;;5072553;28;20305;-75
2023/11/14 09:09:30;;;;;;;10.90;2.17;;;15.90;99.90;;;;;;5051857;28;20604;-75
2023/11/14 09:11:57;;;;;;;7.50;2.07;;;15.90;99.90;;;;;;5053964;28;20590;-75
2023/11/14 09:14:25;;;;;;;7.20;1.87;;;15.90;99.90;;;;;;5072312;28;20273;-74
2023/11/14 09:16:57;;;;;;;9.20;1.70;;;15.90;99.90;;;;;;5042238;28;20605;-75
2023/11/14 09:19:23;;;;;;;7.47;2.43;;;16.00;99.90;;;;;;5039761;28;20590;-75
2023/11/14 09:21:48;;;;;;;9.70;2.00;;;16.00;99.90;;;;;;5044730;28;20200;-75
2023/11/14 09:24:14;;;;;;;8.70;2.13;;;16.00;99.90;;;;;;5046486;28;21007;-75
2023/11/14 09:26:40;;;;;;;10.33;2.20;;;16.00;99.90;;;;;;5054397;28;20636;-75
2023/11/14 09:29:06;;;;;;;6.73;2.13;;;16.10;99.90;;;;;;5072479;28;20172;-75
2023/11/14 09:31:32;;;;;;;14.90;3.03;;;16.00;99.90;;;;;;5051506;28;20616;-75
2023/11/14 09:33:58;;;;;;;5.50;1.57;;;16.10;99.90;;;;;;5057276;28;20664;-75
2023/11/14 09:36:23;;;;;;;8.23;2.20;;;16.10;99.90;;;;;;5071966;28;20873;-75
2023/11/14 09:38:49;;;;;;;10.90;3.80;;;16.20;99.90;;;;;;5054043;28;20186;-76
2023/11/14 09:41:15;;;;;;;13.67;2.07;;;16.20;99.90;;;;;;5073093;28;20224;-75
2023/11/14 09:43:46;;;;;;;7.10;1.97;;;16.30;99.90;;;;;;5053996;28;20172;-75
2023/11/14 09:46:32;;;;;;;11.03;2.83;;;16.30;99.90;;;;;;5055241;28;20725;-75
2023/11/14 09:48:58;;;;;;;7.70;2.00;;;16.30;99.90;;;;;;5070326;28;20587;-75
2023/11/14 09:51:25;;;;;;;12.83;2.40;;;16.40;99.90;;;;;;5053559;28;20586;-76
2023/11/14 09:53:51;;;;;;;8.77;2.57;;;16.40;99.90;;;;;;5037187;28;20176;-75
2023/11/14 09:56:18;;;;;;;10.90;2.33;;;16.40;99.90;;;;;;5071760;28;20606;-76
2023/11/14 09:58:44;;;;;;;8.30;3.90;;;16.40;99.90;;;;;;5072006;28;20579;-76
2023/11/14 10:01:10;;;;;;;5.67;1.70;;;16.50;99.90;;;;;;5036767;28;21305;-77
2023/11/14 10:03:36;;;;;;;10.93;2.37;;;16.50;99.90;;;;;;5053762;28;20670;-75
2023/11/14 10:06:02;;;;;;;8.50;1.83;;;16.50;99.90;;;;;;5026489;28;20607;-76
2023/11/14 10:08:30;;;;;;;8.57;2.20;;;16.50;99.90;;;;;;5054041;28;20590;-77
2023/11/14 10:11:09;;;;;;;6.57;2.13;;;16.50;99.90;;;;;;5071027;28;20587;-76
2023/11/14 10:13:42;;;;;;;6.87;2.00;;;16.50;99.90;;;;;;5061794;28;20583;-76
2023/11/14 10:16:21;;;;;;;8.40;2.37;;;16.50;99.90;;;;;;5071091;28;20641;-76
2023/11/14 10:18:48;;;;;;;8.17;1.60;;;16.50;99.90;;;;;;5071163;28;20617;-76
2023/11/14 10:21:29;;;;;;;9.60;1.60;;;16.50;99.90;;;;;;5053190;28;20643;-76
2023/11/14 10:23:56;;;;;;;7.17;1.50;;;16.50;99.90;;;;;;5053674;28;20632;-77
2023/11/14 10:26:23;;;;;;;7.40;2.57;;;16.50;99.90;;;;;;5045836;28;20656;-76
2023/11/14 10:28:58;;;;;;;9.17;1.60;;;16.50;99.90;;;;;;5037061;28;20594;-76
2023/11/14 10:31:38;;;;;;;5.20;1.70;;;16.50;99.90;;;;;;5071260;28;20586;-77
2023/11/14 10:34:05;;;;;;;5.73;1.33;;;16.50;99.90;;;;;;5061417;28;20618;-76
2023/11/14 10:36:48;;;;;;;6.00;1.50;;;16.50;99.90;;;;;;5053671;28;20606;-76
2023/11/14 10:39:14;;;;;;;5.73;1.53;;;16.50;99.90;;;;;;5072022;28;20632;-79
2023/11/14 10:41:41;;;;;;;7.53;1.73;;;16.50;99.90;;;;;;5062633;28;20733;-79
2023/11/14 10:44:12;;;;;;;4.50;1.13;;;16.50;99.90;;;;;;5075504;28;20574;-78
2023/11/14 10:46:38;;;;;;;5.10;1.43;;;16.50;99.90;;;;;;5072933;28;20633;-79
2023/11/14 10:49:09;;;;;;;10.33;1.50;;;16.60;99.90;;;;;;5060803;28;20594;-79
2023/11/14 10:52:10;;;;;;;8.03;1.87;;;16.50;99.90;;;;;;5074985;28;20590;-79
2023/11/14 10:58:56;;;;;;;8.87;1.90;;;16.50;99.90;;;;;;5044904;28;20645;-77
2023/11/14 11:01:47;;;;;;;9.03;1.47;;;16.30;99.90;;;;;;5025847;28;21390;-79
2023/11/14 11:08:07;;;;;;;9.00;2.40;;;16.10;99.90;;;;;;5058510;28;20745;-78
2023/11/14 11:10:35;;;;;;;10.87;2.40;;;16.10;99.90;;;;;;5063276;28;20598;-77
2023/11/14 11:13:07;;;;;;;7.10;2.03;;;16.00;99.90;;;;;;5071455;28;20591;-77
2023/11/14 11:15:47;;;;;;;6.27;2.03;;;16.00;99.90;;;;;;5063343;28;20634;-77
2023/11/14 11:18:12;;;;;;;4.20;1.80;;;15.90;99.90;;;;;;5058251;28;20621;-76
2023/11/14 11:20:39;;;;;;;9.30;2.07;;;15.90;99.90;;;;;;5027548;28;20944;-75
2023/11/14 11:23:08;;;;;;;8.10;1.80;;;15.90;99.90;;;;;;5075982;28;20208;-76
2023/11/14 11:25:35;;;;;;;6.30;1.87;;;15.90;99.90;;;;;;5056302;28;21215;-76
2023/11/14 11:28:22;;;;;;;5.03;1.27;;;15.90;99.90;;;;;;5076568;28;20678;-76
2023/11/14 11:31:24;;;;;;;6.53;1.43;;;15.90;99.90;;;;;;5057153;28;20594;-75
2023/11/14 11:33:50;;;;;;;7.40;1.40;;;15.90;99.90;;;;;;5073308;28;20590;-75
2023/11/14 11:36:25;;;;;;;3.43;1.20;;;16.00;99.90;;;;;;5040876;28;20622;-76
2023/11/14 11:39:04;;;;;;;9.33;2.23;;;16.00;99.90;;;;;;5069408;28;20597;-75
2023/11/14 11:41:34;;;;;;;7.93;1.20;;;16.00;99.90;;;;;;5069761;28;20642;-76
2023/11/14 11:44:11;;;;;;;7.63;1.37;;;16.00;99.90;;;;;;5052170;28;20579;-76
2023/11/14 11:46:46;;;;;;;4.63;1.20;;;16.00;99.90;;;;;;5015458;28;20622;-77
2023/11/14 11:49:16;;;;;;;6.60;1.60;;;16.00;99.90;;;;;;5069147;28;20574;-76
2023/11/14 11:51:46;;;;;;;6.40;1.00;;;15.90;99.90;;;;;;5069803;28;20583;-75
2023/11/14 11:54:27;;;;;;;4.43;0.80;;;15.90;99.90;;;;;;5051577;28;20601;-75
2023/11/14 11:57:05;;;;;;;6.50;1.80;;;15.90;99.90;;;;;;5034906;28;20673;-77
2023/11/14 11:59:53;;;;;;;6.00;1.40;;;15.80;99.90;;;;;;5052710;28;21179;-76
2023/11/14 12:02:23;;;;;;;4.93;0.90;;;15.70;99.90;;;;;;5068942;28;20646;-77
2023/11/14 12:04:55;;;;;;;5.00;1.10;;;15.70;99.90;;;;;;5036396;28;20615;-78
2023/11/14 12:07:21;;;;;;;10.57;2.53;;;15.60;99.90;;;;;;5069253;28;20599;-78
2023/11/14 12:09:50;;;;;;;4.93;1.20;;;15.60;99.90;;;;;;5073430;28;21154;-77
2023/11/14 12:12:16;;;;;;;6.23;1.80;;;15.60;99.90;;;;;;5055182;28;20587;-77
2023/11/14 12:14:42;;;;;;;4.37;1.60;;;15.50;99.90;;;;;;5054892;28;20636;-77
2023/11/14 12:17:08;;;;;;;6.70;1.60;;;15.50;99.90;;;;;;5055533;28;20579;-78
2023/11/14 12:19:35;;;;;;;6.50;2.57;;;15.50;99.90;;;;;;5055686;28;20605;-78
2023/11/14 12:22:01;;;;;;;7.23;2.20;;;15.50;99.90;;;;;;5055230;28;20696;-78
2023/11/14 12:24:27;;;;;;;4.80;1.50;;;15.50;99.90;;;;;;5055581;28;20677;-77
2023/11/14 12:26:53;;;;;;;6.03;1.50;;;15.50;99.90;;;;;;5072695;28;20618;-78
2023/11/14 12:29:19;;;;;;;4.80;1.43;;;15.60;99.90;;;;;;5073188;28;20586;-77
2023/11/14 12:31:51;;;;;;;3.90;0.93;;;15.60;99.90;;;;;;5054834;28;21153;-77
2023/11/14 12:34:28;;;;;;;10.03;1.73;;;15.50;99.90;;;;;;5072870;28;20204;-77
2023/11/14 12:37:08;;;;;;;7.67;1.37;;;15.50;99.90;;;;;;5076510;28;20590;-76
2023/11/14 12:39:34;;;;;;;8.20;1.40;;;15.50;99.90;;;;;;5072959;28;20582;-77
2023/11/14 12:42:00;;;;;;;3.63;1.13;;;15.40;99.90;;;;;;5072500;28;20695;-77
2023/11/14 12:44:27;;;;;;;6.43;1.20;;;15.40;99.90;;;;;;5073005;28;20226;-78
2023/11/14 12:46:56;;;;;;;5.70;1.60;;;15.30;99.90;;;;;;5071552;28;20621;-77
2023/11/14 12:49:22;;;;;;;8.30;2.43;;;15.30;99.90;;;;;;5072724;28;20586;-78
2023/11/14 12:51:55;;;;;;;5.67;1.50;;;15.20;99.90;;;;;;5072355;28;20602;-77